Time;durP1;ratioP1;P1;durP2;ratioP2;P2;SDS_P1;SDS_P2;PMS_P1;PMS_P2;Temp;Humidity;BMP_temperature;BMP_pressure;BME280_temperature;BME280_humidity;BME280_pressure;Samples;Min_cycle;Max_cycle;Signal;HPM_P1;HPM_P2
2022/07/09 00:01:06;;;;;;;0.70;0.63;;;;;;;;;;5070044;28;20046;-65
2022/07/09 00:03:32;;;;;;;1.23;1.10;;;;;;;;;;5069887;28;20550;-65
2022/07/09 00:05:58;;;;;;;0.70;0.70;;;;;;;;;;5069527;28;20094;-61
2022/07/09 00:08:24;;;;;;;2.17;1.17;;;;;;;;;;5069367;28;20091;-65
2022/07/09 00:10:50;;;;;;;2.55;0.90;;;;;;;;;;5070634;28;20052;-65
2022/07/09 00:13:16;;;;;;;1.63;0.80;;;;;;;;;;5070264;28;20045;-65
2022/07/09 00:15:42;;;;;;;1.00;0.90;;;;;;;;;;5068253;28;20051;-65
2022/07/09 00:18:08;;;;;;;0.90;0.90;;;;;;;;;;5069464;28;20043;-65
2022/07/09 00:20:34;;;;;;;1.02;0.70;;;;;;;;;;5069522;28;20052;-65
2022/07/09 00:23:01;;;;;;;0.63;0.63;;;;;;;;;;5068850;28;20493;-60
2022/07/09 00:25:27;;;;;;;1.35;0.75;;;;;;;;;;5070614;28;20047;-66
2022/07/09 00:27:53;;;;;;;0.80;0.80;;;;;;;;;;5070518;28;20044;-65
2022/07/09 00:30:19;;;;;;;2.55;1.00;;;;;;;;;;5069562;28;20044;-64
2022/07/09 00:32:45;;;;;;;1.25;0.95;;;;;;;;;;5070412;28;20047;-64
2022/07/09 00:35:11;;;;;;;1.10;0.90;;;;;;;;;;5068633;28;20089;-65
2022/07/09 00:37:37;;;;;;;0.93;0.85;;;;;;;;;;5068271;28;20083;-64
2022/07/09 00:40:03;;;;;;;1.85;0.77;;;;;;;;;;5069836;28;20043;-60
2022/07/09 00:42:29;;;;;;;0.70;0.70;;;;;;;;;;5070206;28;20080;-65
2022/07/09 00:44:55;;;;;;;1.20;0.80;;;;;;;;;;5070217;28;20487;-65
2022/07/09 00:47:21;;;;;;;1.67;1.00;;;;;;;;;;5069360;28;20607;-65
2022/07/09 00:49:48;;;;;;;1.50;0.77;;;;;;;;;;5070108;28;20044;-66
2022/07/09 00:52:14;;;;;;;1.42;1.17;;;;;;;;;;5067854;28;20052;-66
2022/07/09 00:54:42;;;;;;;0.80;0.80;;;;;;;;;;5070357;28;20053;-66
2022/07/09 00:57:09;;;;;;;0.80;0.80;;;;;;;;;;5069574;28;20048;-64
2022/07/09 00:59:36;;;;;;;1.83;1.00;;;;;;;;;;5070046;28;20076;-66
2022/07/09 01:02:02;;;;;;;0.63;0.63;;;;;;;;;;5069215;28;20052;-62
2022/07/09 01:04:29;;;;;;;1.40;0.80;;;;;;;;;;5069715;28;20044;-63
2022/07/09 01:06:55;;;;;;;0.70;0.70;;;;;;;;;;5070674;28;20049;-63
2022/07/09 01:09:21;;;;;;;0.70;0.70;;;;;;;;;;5072044;28;20045;-65
2022/07/09 01:11:47;;;;;;;1.23;1.00;;;;;;;;;;5073944;28;20135;-65
2022/07/09 01:14:14;;;;;;;0.90;0.75;;;;;;;;;;5073252;28;20051;-65
2022/07/09 01:16:40;;;;;;;1.13;0.90;;;;;;;;;;5073511;28;20040;-64
2022/07/09 01:19:08;;;;;;;2.03;0.90;;;;;;;;;;5072561;28;20044;-60
2022/07/09 01:21:34;;;;;;;1.38;0.80;;;;;;;;;;5072535;28;20049;-65
2022/07/09 01:24:00;;;;;;;2.45;0.80;;;;;;;;;;5072752;28;20044;-66
2022/07/09 01:26:27;;;;;;;0.50;0.50;;;;;;;;;;5072709;28;20075;-65
2022/07/09 01:28:53;;;;;;;0.85;0.60;;;;;;;;;;5073563;28;20474;-65
2022/07/09 01:31:19;;;;;;;1.13;1.02;;;;;;;;;;5072796;28;20139;-65
2022/07/09 01:33:46;;;;;;;1.58;0.63;;;;;;;;;;5073298;28;20078;-64
2022/07/09 01:36:12;;;;;;;0.90;0.90;;;;;;;;;;5071418;28;20044;-65
2022/07/09 01:38:38;;;;;;;1.05;0.77;;;;;;;;;;5072531;28;20048;-66
2022/07/09 01:41:04;;;;;;;0.65;0.65;;;;;;;;;;5072754;28;20071;-66
2022/07/09 01:43:34;;;;;;;0.80;0.80;;;;;;;;;;5072361;28;20544;-66
2022/07/09 01:46:00;;;;;;;1.73;0.65;;;;;;;;;;5072977;28;20082;-65
2022/07/09 01:48:27;;;;;;;0.77;0.77;;;;;;;;;;5072249;28;20132;-66
2022/07/09 01:50:53;;;;;;;1.27;0.82;;;;;;;;;;5072038;28;20469;-66
2022/07/09 01:53:20;;;;;;;0.77;0.73;;;;;;;;;;5071840;28;20048;-65
2022/07/09 01:55:46;;;;;;;2.90;0.80;;;;;;;;;;5072984;28;20044;-65
2022/07/09 01:58:13;;;;;;;1.50;1.00;;;;;;;;;;5072482;28;20044;-64
2022/07/09 02:00:39;;;;;;;1.27;0.80;;;;;;;;;;5072672;28;20159;-65
2022/07/09 02:03:05;;;;;;;0.63;0.60;;;;;;;;;;5071958;28;20067;-64
2022/07/09 02:05:31;;;;;;;0.63;0.63;;;;;;;;;;5070491;28;20051;-66
2022/07/09 02:07:57;;;;;;;1.20;0.90;;;;;;;;;;5071912;28;20048;-65
2022/07/09 02:10:23;;;;;;;1.10;0.75;;;;;;;;;;5071727;28;20119;-66
2022/07/09 02:12:49;;;;;;;0.85;0.70;;;;;;;;;;5072811;28;20041;-65
2022/07/09 02:15:16;;;;;;;3.85;1.42;;;;;;;;;;5072000;28;20055;-66
2022/07/09 02:17:42;;;;;;;0.80;0.80;;;;;;;;;;5072033;28;20131;-65
2022/07/09 02:20:11;;;;;;;0.98;0.80;;;;;;;;;;5071036;28;20145;-65
2022/07/09 02:22:38;;;;;;;1.30;0.73;;;;;;;;;;5071033;28;20074;-66
2022/07/09 02:25:05;;;;;;;0.70;0.65;;;;;;;;;;5069849;28;20550;-64
2022/07/09 02:27:31;;;;;;;0.70;0.70;;;;;;;;;;5066181;28;20397;-65
2022/07/09 02:29:57;;;;;;;0.93;0.90;;;;;;;;;;5055301;28;20485;-65
2022/07/09 02:32:23;;;;;;;0.68;0.68;;;;;;;;;;5052046;28;20041;-65
2022/07/09 02:34:50;;;;;;;1.25;0.77;;;;;;;;;;5071822;28;20401;-66
2022/07/09 02:37:16;;;;;;;1.88;0.85;;;;;;;;;;5069664;28;20044;-65
2022/07/09 02:39:42;;;;;;;0.57;0.57;;;;;;;;;;5072232;28;20041;-65
2022/07/09 02:42:08;;;;;;;0.82;0.82;;;;;;;;;;5071418;28;20051;-66
2022/07/09 02:44:34;;;;;;;2.00;1.00;;;;;;;;;;5071591;28;20094;-65
2022/07/09 02:47:00;;;;;;;1.00;0.88;;;;;;;;;;5071424;28;20048;-65
2022/07/09 02:49:26;;;;;;;0.80;0.80;;;;;;;;;;5071224;28;20124;-66
2022/07/09 02:51:53;;;;;;;0.70;0.70;;;;;;;;;;5069424;28;20044;-65
2022/07/09 02:54:19;;;;;;;0.95;0.80;;;;;;;;;;5070191;28;20048;-64
2022/07/09 02:56:45;;;;;;;0.52;0.52;;;;;;;;;;5071461;28;20492;-65
2022/07/09 02:59:11;;;;;;;1.63;0.88;;;;;;;;;;5071168;28;20485;-64
2022/07/09 03:01:37;;;;;;;1.02;0.63;;;;;;;;;;5070675;28;20432;-66
2022/07/09 03:04:03;;;;;;;0.90;0.88;;;;;;;;;;5071080;28;20067;-65
2022/07/09 03:06:29;;;;;;;1.15;0.98;;;;;;;;;;5070059;28;20044;-65
2022/07/09 03:08:55;;;;;;;0.70;0.70;;;;;;;;;;5078491;28;20074;-65
2022/07/09 03:11:21;;;;;;;0.73;0.73;;;;;;;;;;5070975;28;20362;-64
2022/07/09 03:13:47;;;;;;;1.13;0.80;;;;;;;;;;5071213;28;20474;-65
2022/07/09 03:16:13;;;;;;;0.70;0.70;;;;;;;;;;5070012;28;20052;-65
2022/07/09 03:18:39;;;;;;;0.93;0.90;;;;;;;;;;5070247;28;20079;-64
2022/07/09 03:21:08;;;;;;;1.40;0.80;;;;;;;;;;5069604;28;20088;-65
2022/07/09 03:23:34;;;;;;;1.27;0.77;;;;;;;;;;5070082;28;20477;-65
2022/07/09 03:26:00;;;;;;;0.90;0.80;;;;;;;;;;5070871;28;20481;-65
2022/07/09 03:28:26;;;;;;;1.13;0.75;;;;;;;;;;5070544;28;20044;-65
2022/07/09 03:30:52;;;;;;;0.75;0.75;;;;;;;;;;5069839;28;20040;-65
2022/07/09 03:33:18;;;;;;;1.30;0.60;;;;;;;;;;5070286;28;20087;-59
2022/07/09 03:35:44;;;;;;;1.25;0.82;;;;;;;;;;5069970;28;20043;-65
2022/07/09 03:38:10;;;;;;;0.70;0.70;;;;;;;;;;5069669;28;20040;-65
2022/07/09 03:40:36;;;;;;;0.85;0.80;;;;;;;;;;5070184;28;20059;-65
2022/07/09 03:43:02;;;;;;;1.05;0.90;;;;;;;;;;5070520;28;20048;-66
2022/07/09 03:45:28;;;;;;;0.85;0.70;;;;;;;;;;5070124;28;20044;-66
2022/07/09 03:47:54;;;;;;;1.05;0.80;;;;;;;;;;5070539;28;20040;-65
2022/07/09 03:50:20;;;;;;;1.10;0.60;;;;;;;;;;5068762;28;20433;-60
2022/07/09 03:52:46;;;;;;;0.82;0.70;;;;;;;;;;5069369;28;20044;-65
2022/07/09 03:55:12;;;;;;;1.48;0.80;;;;;;;;;;5070485;28;20087;-65
2022/07/09 03:57:38;;;;;;;0.75;0.70;;;;;;;;;;5070043;28;20862;-66
2022/07/09 04:00:06;;;;;;;0.80;0.80;;;;;;;;;;5069557;28;20068;-65
2022/07/09 04:02:32;;;;;;;0.73;0.73;;;;;;;;;;5070136;28;20055;-65
2022/07/09 04:04:58;;;;;;;1.27;0.70;;;;;;;;;;5069101;28;20036;-64
2022/07/09 04:07:26;;;;;;;1.15;1.02;;;;;;;;;;5068692;28;20044;-65
2022/07/09 04:09:55;;;;;;;0.68;0.68;;;;;;;;;;5070111;28;20080;-64
2022/07/09 04:12:21;;;;;;;0.82;0.80;;;;;;;;;;5070177;28;20122;-61
2022/07/09 04:14:47;;;;;;;0.80;0.80;;;;;;;;;;5070435;28;20098;-65
2022/07/09 04:17:13;;;;;;;0.70;0.70;;;;;;;;;;5069937;28;20049;-64
2022/07/09 04:19:40;;;;;;;1.52;0.90;;;;;;;;;;5069786;28;20056;-65
2022/07/09 04:22:06;;;;;;;0.85;0.82;;;;;;;;;;5068483;28;20663;-65
2022/07/09 04:24:32;;;;;;;0.80;0.80;;;;;;;;;;5069424;28;20044;-66
2022/07/09 04:26:58;;;;;;;1.10;1.00;;;;;;;;;;5068498;28;20496;-66
2022/07/09 04:29:24;;;;;;;0.95;0.80;;;;;;;;;;5070072;28;20043;-61
2022/07/09 04:31:50;;;;;;;1.27;1.17;;;;;;;;;;5069733;28;20094;-66
2022/07/09 04:34:16;;;;;;;0.95;0.90;;;;;;;;;;5069941;28;20067;-66
2022/07/09 04:36:42;;;;;;;0.85;0.85;;;;;;;;;;5068757;28;20067;-65
2022/07/09 04:39:09;;;;;;;0.95;0.80;;;;;;;;;;5069177;28;20044;-65
2022/07/09 04:41:36;;;;;;;1.25;0.88;;;;;;;;;;5071307;28;20044;-65
2022/07/09 04:44:03;;;;;;;1.25;1.00;;;;;;;;;;5074240;28;20139;-65
2022/07/09 04:46:30;;;;;;;0.65;0.65;;;;;;;;;;5070592;28;20474;-65
2022/07/09 04:48:57;;;;;;;0.73;0.73;;;;;;;;;;5068750;28;20398;-65
2022/07/09 04:51:23;;;;;;;2.80;0.80;;;;;;;;;;5072952;28;20465;-65
2022/07/09 04:53:49;;;;;;;2.10;0.90;;;;;;;;;;5072502;28;20056;-65
2022/07/09 04:56:15;;;;;;;1.85;0.82;;;;;;;;;;5073057;28;20045;-65
2022/07/09 04:58:51;;;;;;;1.40;0.90;;;;;;;;;;5073599;28;20049;-65
2022/07/09 05:01:18;;;;;;;0.80;0.80;;;;;;;;;;5073489;28;20386;-64
2022/07/09 05:03:44;;;;;;;2.08;0.90;;;;;;;;;;5072533;28;20111;-65
2022/07/09 05:06:10;;;;;;;0.80;0.80;;;;;;;;;;5071845;28;20041;-65
2022/07/09 05:08:36;;;;;;;0.85;0.70;;;;;;;;;;5071740;28;20036;-64
2022/07/09 05:11:02;;;;;;;0.82;0.82;;;;;;;;;;5073235;28;20044;-65
2022/07/09 05:13:28;;;;;;;1.38;0.80;;;;;;;;;;5072013;28;20486;-61
2022/07/09 05:15:54;;;;;;;0.85;0.80;;;;;;;;;;5073520;28;20486;-65
2022/07/09 05:18:20;;;;;;;0.82;0.82;;;;;;;;;;5073073;28;20512;-65
2022/07/09 05:20:46;;;;;;;0.70;0.70;;;;;;;;;;5071758;28;20088;-65
2022/07/09 05:23:12;;;;;;;2.25;1.10;;;;;;;;;;5072219;28;20040;-64
2022/07/09 05:25:38;;;;;;;0.80;0.80;;;;;;;;;;5072569;28;20044;-65
2022/07/09 05:28:04;;;;;;;0.85;0.85;;;;;;;;;;5072516;28;20075;-64
2022/07/09 05:30:36;;;;;;;0.75;0.73;;;;;;;;;;5071873;28;20052;-65
2022/07/09 05:33:03;;;;;;;1.15;0.90;;;;;;;;;;5073512;28;20379;-64
2022/07/09 05:35:29;;;;;;;1.75;1.40;;;;;;;;;;5070870;28;20402;-60
2022/07/09 05:37:55;;;;;;;2.25;1.00;;;;;;;;;;5071452;28;20052;-65
2022/07/09 05:40:21;;;;;;;0.70;0.70;;;;;;;;;;5072971;28;20037;-65
2022/07/09 05:42:47;;;;;;;1.00;0.88;;;;;;;;;;5072937;28;20048;-65
2022/07/09 05:45:13;;;;;;;1.10;0.95;;;;;;;;;;5072539;28;20089;-65
2022/07/09 05:47:39;;;;;;;1.05;0.90;;;;;;;;;;5072664;28;20102;-65
2022/07/09 05:50:06;;;;;;;0.82;0.82;;;;;;;;;;5071484;28;20044;-64
2022/07/09 05:52:32;;;;;;;1.17;0.65;;;;;;;;;;5069698;28;20474;-60
2022/07/09 05:54:58;;;;;;;0.93;0.80;;;;;;;;;;5069100;28;20097;-64
2022/07/09 05:57:24;;;;;;;2.38;0.98;;;;;;;;;;5072403;28;20062;-64
2022/07/09 05:59:50;;;;;;;0.85;0.85;;;;;;;;;;5072178;28;20056;-65
2022/07/09 06:02:16;;;;;;;0.95;0.80;;;;;;;;;;5087192;28;20362;-65
2022/07/09 06:04:42;;;;;;;0.88;0.73;;;;;;;;;;5071245;28;20516;-64
2022/07/09 06:07:09;;;;;;;0.60;0.60;;;;;;;;;;5070496;28;20040;-64
2022/07/09 06:09:35;;;;;;;0.80;0.77;;;;;;;;;;5071067;28;20056;-64
2022/07/09 06:12:01;;;;;;;1.48;1.00;;;;;;;;;;5072559;28;20048;-65
2022/07/09 06:14:27;;;;;;;0.80;0.80;;;;;;;;;;5071630;28;20813;-65
2022/07/09 06:16:55;;;;;;;1.08;0.80;;;;;;;;;;5071750;28;20692;-65
2022/07/09 06:19:21;;;;;;;1.33;0.80;;;;;;;;;;5070829;28;20501;-64
2022/07/09 06:21:47;;;;;;;4.00;1.35;;;;;;;;;;5070930;28;20466;-65
2022/07/09 06:24:13;;;;;;;1.33;0.85;;;;;;;;;;5070207;28;20454;-65
2022/07/09 06:26:39;;;;;;;0.73;0.73;;;;;;;;;;5071381;28;20080;-65
2022/07/09 06:29:05;;;;;;;1.08;0.70;;;;;;;;;;5072194;28;20040;-65
2022/07/09 06:31:31;;;;;;;0.80;0.80;;;;;;;;;;5071928;28;20036;-65
2022/07/09 06:33:58;;;;;;;1.33;1.05;;;;;;;;;;5062355;28;20041;-65
2022/07/09 06:36:24;;;;;;;1.52;0.90;;;;;;;;;;5056599;28;20092;-64
2022/07/09 06:41:35;;;;;;;0.98;0.95;;;;;;;;;;5071912;28;20078;-65
2022/07/09 06:44:01;;;;;;;2.05;1.00;;;;;;;;;;5071649;28;20063;-65
2022/07/09 06:46:27;;;;;;;2.38;1.15;;;;;;;;;;5070935;28;20060;-63
2022/07/09 06:48:53;;;;;;;0.90;0.90;;;;;;;;;;5071000;28;20048;-65
2022/07/09 06:51:19;;;;;;;0.73;0.70;;;;;;;;;;5071014;28;20093;-65
2022/07/09 06:53:45;;;;;;;0.70;0.70;;;;;;;;;;5070289;28;20084;-65
2022/07/09 06:56:11;;;;;;;1.02;0.93;;;;;;;;;;5071386;28;20052;-65
2022/07/09 06:58:37;;;;;;;0.90;0.90;;;;;;;;;;5070843;28;20050;-63
2022/07/09 07:01:03;;;;;;;0.70;0.70;;;;;;;;;;5071318;28;20041;-65
2022/07/09 07:03:29;;;;;;;0.68;0.68;;;;;;;;;;5069166;28;20402;-64
2022/07/09 07:05:55;;;;;;;0.88;0.70;;;;;;;;;;5069853;28;20178;-65
2022/07/09 07:08:21;;;;;;;0.65;0.65;;;;;;;;;;5070184;28;20048;-65
2022/07/09 07:10:47;;;;;;;1.10;0.73;;;;;;;;;;5070827;28;20416;-64
2022/07/09 07:13:13;;;;;;;0.73;0.65;;;;;;;;;;5071080;28;20047;-64
2022/07/09 07:15:39;;;;;;;0.68;0.63;;;;;;;;;;5070758;28;20047;-61
2022/07/09 07:18:05;;;;;;;0.73;0.70;;;;;;;;;;5070981;28;20040;-65
2022/07/09 07:20:31;;;;;;;0.60;0.60;;;;;;;;;;5069203;28;20087;-64
2022/07/09 07:22:57;;;;;;;0.70;0.63;;;;;;;;;;5069961;28;20413;-65
2022/07/09 07:25:24;;;;;;;0.80;0.60;;;;;;;;;;5070803;28;20512;-64
2022/07/09 07:27:50;;;;;;;1.05;0.80;;;;;;;;;;5070059;28;20539;-65
2022/07/09 07:30:16;;;;;;;0.57;0.57;;;;;;;;;;5070703;28;20036;-62
2022/07/09 07:32:42;;;;;;;0.73;0.70;;;;;;;;;;5067883;28;20064;-60
2022/07/09 07:35:09;;;;;;;0.82;0.82;;;;;;;;;;5069424;28;20127;-63
2022/07/09 07:37:35;;;;;;;0.50;0.50;;;;;;;;;;5069573;28;20515;-64
2022/07/09 07:40:01;;;;;;;1.20;0.90;;;;;;;;;;5070702;28;20587;-65
2022/07/09 07:42:27;;;;;;;1.15;0.68;;;;;;;;;;5069807;28;20048;-65
2022/07/09 07:44:53;;;;;;;0.60;0.60;;;;;;;;;;5070537;28;20052;-64
2022/07/09 07:47:19;;;;;;;0.63;0.63;;;;;;;;;;5067329;28;20393;-64
2022/07/09 07:49:45;;;;;;;1.85;0.73;;;;;;;;;;5069847;28;20462;-59
2022/07/09 07:52:12;;;;;;;0.73;0.70;;;;;;;;;;5069101;28;20094;-64
2022/07/09 07:54:38;;;;;;;1.48;0.85;;;;;;;;;;5070891;28;20101;-63
2022/07/09 07:57:04;;;;;;;1.52;0.80;;;;;;;;;;5070038;28;20876;-63
2022/07/09 07:59:30;;;;;;;0.70;0.70;;;;;;;;;;5070393;28;20066;-64
2022/07/09 08:01:56;;;;;;;1.38;0.88;;;;;;;;;;5069037;28;20080;-63
2022/07/09 08:04:22;;;;;;;0.70;0.70;;;;;;;;;;5068267;28;20041;-64
2022/07/09 08:06:48;;;;;;;2.47;0.93;;;;;;;;;;5067977;28;20036;-64
2022/07/09 08:09:14;;;;;;;0.70;0.70;;;;;;;;;;5069160;28;20167;-64
2022/07/09 08:11:40;;;;;;;0.70;0.70;;;;;;;;;;5070255;28;20045;-65
2022/07/09 08:14:08;;;;;;;0.60;0.60;;;;;;;;;;5070269;28;20068;-64
2022/07/09 08:16:34;;;;;;;1.05;0.77;;;;;;;;;;5069117;28;20115;-63
2022/07/09 08:19:00;;;;;;;1.23;0.70;;;;;;;;;;5069807;28;20051;-64
2022/07/09 08:21:27;;;;;;;1.70;0.90;;;;;;;;;;5069169;28;20052;-63
2022/07/09 08:23:56;;;;;;;0.60;0.60;;;;;;;;;;5069055;28;20040;-63
2022/07/09 08:26:24;;;;;;;1.23;0.80;;;;;;;;;;5069311;28;20193;-64
2022/07/09 08:28:50;;;;;;;2.78;0.90;;;;;;;;;;5066320;28;20490;-59
2022/07/09 08:31:17;;;;;;;0.43;0.43;;;;;;;;;;5068267;28;20051;-64
2022/07/09 08:33:43;;;;;;;2.10;0.80;;;;;;;;;;5064823;28;20040;-64
2022/07/09 08:36:09;;;;;;;0.60;0.60;;;;;;;;;;5064296;28;20297;-63
2022/07/09 08:38:36;;;;;;;0.73;0.70;;;;;;;;;;5065598;28;20033;-63
2022/07/09 08:41:03;;;;;;;0.73;0.70;;;;;;;;;;5063806;28;20033;-63
2022/07/09 08:43:32;;;;;;;0.85;0.80;;;;;;;;;;5061505;28;20049;-62
2022/07/09 08:45:58;;;;;;;1.10;0.68;;;;;;;;;;5065657;28;20102;-63
2022/07/09 08:48:24;;;;;;;0.50;0.50;;;;;;;;;;5082107;28;20036;-63
2022/07/09 08:50:51;;;;;;;1.02;0.80;;;;;;;;;;5064862;28;20111;-64
2022/07/09 08:53:18;;;;;;;0.95;0.75;;;;;;;;;;5068640;28;20036;-64
2022/07/09 08:55:45;;;;;;;1.23;0.77;;;;;;;;;;5069459;28;20093;-64
2022/07/09 08:58:12;;;;;;;0.50;0.50;;;;;;;;;;5068926;28;20444;-64
2022/07/09 09:00:38;;;;;;;1.58;0.90;;;;;;;;;;5069317;28;20043;-64
2022/07/09 09:03:05;;;;;;;0.80;0.80;;;;;;;;;;5069183;28;20036;-64
2022/07/09 09:05:31;;;;;;;2.90;0.90;;;;;;;;;;5068279;28;20116;-64
2022/07/09 09:07:58;;;;;;;0.70;0.65;;;;;;;;;;5066670;28;20474;-65
2022/07/09 09:10:24;;;;;;;0.60;0.60;;;;;;;;;;5066855;28;20037;-64
2022/07/09 09:12:57;;;;;;;1.02;0.80;;;;;;;;;;5067019;28;20136;-63
2022/07/09 09:15:23;;;;;;;1.25;0.80;;;;;;;;;;5066552;28;20055;-64
2022/07/09 09:17:49;;;;;;;0.70;0.70;;;;;;;;;;5069184;28;20040;-64
2022/07/09 09:20:16;;;;;;;1.33;0.52;;;;;;;;;;5068205;28;20612;-64
2022/07/09 09:22:46;;;;;;;1.05;0.85;;;;;;;;;;5063226;28;20474;-64
2022/07/09 09:25:19;;;;;;;0.85;0.65;;;;;;;;;;5069605;28;20044;-63
2022/07/09 09:27:54;;;;;;;0.68;0.68;;;;;;;;;;5070601;28;20037;-62
2022/07/09 09:30:20;;;;;;;1.55;0.80;;;;;;;;;;5071607;28;20245;-64
2022/07/09 09:33:03;;;;;;;0.40;0.40;;;;;;;;;;5066511;28;20165;-59
2022/07/09 09:35:42;;;;;;;1.05;0.85;;;;;;;;;;5069936;28;20086;-62
2022/07/09 09:38:09;;;;;;;3.33;1.10;;;;;;;;;;5072117;28;20127;-62
2022/07/09 09:40:36;;;;;;;1.27;1.10;;;;;;;;;;5073621;28;20040;-62
2022/07/09 09:43:03;;;;;;;1.33;0.73;;;;;;;;;;5072434;28;20678;-62
2022/07/09 09:45:29;;;;;;;3.28;1.20;;;;;;;;;;5073329;28;20684;-61
2022/07/09 09:47:55;;;;;;;1.52;0.90;;;;;;;;;;5073388;28;20127;-61
2022/07/09 09:50:23;;;;;;;1.92;1.00;;;;;;;;;;5071853;28;20047;-63
2022/07/09 09:52:50;;;;;;;1.17;0.93;;;;;;;;;;5070967;28;20063;-62
2022/07/09 09:55:17;;;;;;;0.95;0.80;;;;;;;;;;5072167;28;20040;-62
2022/07/09 09:57:44;;;;;;;2.08;1.00;;;;;;;;;;5073224;28;20036;-63
2022/07/09 10:00:11;;;;;;;2.25;1.08;;;;;;;;;;5072163;28;20040;-62
2022/07/09 10:02:39;;;;;;;1.33;1.00;;;;;;;;;;5057263;28;20041;-64
2022/07/09 10:05:05;;;;;;;2.05;1.20;;;;;;;;;;5051497;28;20114;-64
2022/07/09 10:07:33;;;;;;;1.23;0.98;;;;;;;;;;5051997;28;20561;-64
2022/07/09 10:09:59;;;;;;;1.63;0.93;;;;;;;;;;5052840;28;20048;-60
2022/07/09 10:12:33;;;;;;;1.52;0.90;;;;;;;;;;5052756;28;20068;-62
2022/07/09 10:14:59;;;;;;;2.83;1.25;;;;;;;;;;5052722;28;20041;-59
2022/07/09 10:17:26;;;;;;;4.18;1.20;;;;;;;;;;5064710;28;20044;-64
2022/07/09 10:19:53;;;;;;;1.25;0.90;;;;;;;;;;5072138;28;20045;-64
2022/07/09 10:22:19;;;;;;;3.78;1.50;;;;;;;;;;5070480;28;20056;-64
2022/07/09 10:24:46;;;;;;;5.13;1.00;;;;;;;;;;5072537;28;20393;-64
2022/07/09 10:27:13;;;;;;;4.32;1.00;;;;;;;;;;5059210;28;20052;-63
2022/07/09 10:29:54;;;;;;;4.28;1.25;;;;;;;;;;5070234;28;20367;-62
2022/07/09 10:32:30;;;;;;;1.77;1.00;;;;;;;;;;5071921;28;20083;-62
2022/07/09 10:35:00;;;;;;;5.97;0.98;;;;;;;;;;5071785;28;20048;-62
2022/07/09 10:37:32;;;;;;;2.85;1.00;;;;;;;;;;5070776;28;20051;-62
2022/07/09 10:40:05;;;;;;;5.72;1.30;;;;;;;;;;5072023;28;20037;-63
2022/07/09 10:42:31;;;;;;;1.10;0.80;;;;;;;;;;5070796;28;20044;-63
2022/07/09 10:44:57;;;;;;;1.58;0.80;;;;;;;;;;5071514;28;20162;-63
2022/07/09 10:47:23;;;;;;;2.17;1.10;;;;;;;;;;5070544;28;20107;-63
2022/07/09 10:49:49;;;;;;;2.17;0.65;;;;;;;;;;5071939;28;20127;-63
2022/07/09 10:52:15;;;;;;;1.17;0.80;;;;;;;;;;5069071;28;20048;-63
2022/07/09 10:54:48;;;;;;;3.33;1.00;;;;;;;;;;5072139;28;20086;-63
2022/07/09 10:57:15;;;;;;;1.23;0.85;;;;;;;;;;5067986;28;20044;-63
2022/07/09 10:59:47;;;;;;;2.15;1.05;;;;;;;;;;5071560;28;20538;-63
2022/07/09 11:02:20;;;;;;;2.08;0.98;;;;;;;;;;5067865;28;20043;-63
2022/07/09 11:04:50;;;;;;;0.98;0.93;;;;;;;;;;5052375;28;20045;-64
2022/07/09 11:07:27;;;;;;;1.77;1.05;;;;;;;;;;5049624;28;20052;-64
2022/07/09 11:09:53;;;;;;;1.10;1.00;;;;;;;;;;5051951;28;20478;-63
2022/07/09 11:12:20;;;;;;;1.30;1.05;;;;;;;;;;5061944;28;20516;-64
2022/07/09 11:14:50;;;;;;;2.55;1.15;;;;;;;;;;5071786;28;20366;-64
2022/07/09 11:17:18;;;;;;;3.85;1.00;;;;;;;;;;5070915;28;20036;-63
2022/07/09 11:19:44;;;;;;;3.10;1.00;;;;;;;;;;5071277;28;20049;-64
2022/07/09 11:22:10;;;;;;;4.18;0.80;;;;;;;;;;5068682;28;20734;-63
2022/07/09 11:24:37;;;;;;;1.33;0.80;;;;;;;;;;5070767;28;20048;-64
2022/07/09 11:27:03;;;;;;;3.55;1.00;;;;;;;;;;5071471;28;20499;-64
2022/07/09 11:29:30;;;;;;;1.27;1.00;;;;;;;;;;5070990;28;20098;-63
2022/07/09 11:31:56;;;;;;;2.40;1.17;;;;;;;;;;5071271;28;20052;-64
2022/07/09 11:34:22;;;;;;;1.98;1.05;;;;;;;;;;5070472;28;20495;-64
2022/07/09 11:36:52;;;;;;;1.83;1.00;;;;;;;;;;5050261;28;20049;-64
2022/07/09 11:39:36;;;;;;;2.25;0.90;;;;;;;;;;5050216;28;20067;-64
2022/07/09 11:42:03;;;;;;;0.70;0.70;;;;;;;;;;5051514;28;20048;-62
2022/07/09 11:44:30;;;;;;;2.70;0.98;;;;;;;;;;5050836;28;20075;-64
2022/07/09 11:47:15;;;;;;;6.75;1.10;;;;;;;;;;5063588;28;20097;-63
2022/07/09 11:49:42;;;;;;;2.28;0.90;;;;;;;;;;5070663;28;20059;-64
2022/07/09 11:52:24;;;;;;;1.30;1.02;;;;;;;;;;5069556;28;20045;-59
2022/07/09 11:55:00;;;;;;;1.30;0.98;;;;;;;;;;5070716;28;20481;-64
2022/07/09 11:57:27;;;;;;;2.30;0.80;;;;;;;;;;5070039;28;20050;-64
2022/07/09 11:59:53;;;;;;;2.88;1.05;;;;;;;;;;5071002;28;20190;-63
2022/07/09 12:02:23;;;;;;;2.35;0.93;;;;;;;;;;5086025;28;20063;-62
2022/07/09 12:04:49;;;;;;;1.33;0.90;;;;;;;;;;5069780;28;20532;-63
2022/07/09 12:07:15;;;;;;;1.10;0.65;;;;;;;;;;5068437;28;20397;-64
2022/07/09 12:09:42;;;;;;;1.13;0.90;;;;;;;;;;5070058;28;20111;-63
2022/07/09 12:12:08;;;;;;;1.27;0.77;;;;;;;;;;5067823;28;20123;-60
2022/07/09 12:14:34;;;;;;;1.13;1.02;;;;;;;;;;5070875;28;20040;-64
2022/07/09 12:17:00;;;;;;;1.50;0.60;;;;;;;;;;5068855;28;20028;-63
2022/07/09 12:19:27;;;;;;;0.63;0.60;;;;;;;;;;5069254;28;20040;-64
2022/07/09 12:21:53;;;;;;;2.03;1.00;;;;;;;;;;5069926;28;20049;-63
2022/07/09 12:24:19;;;;;;;1.30;1.00;;;;;;;;;;5068832;28;20497;-64
2022/07/09 12:26:45;;;;;;;3.90;1.10;;;;;;;;;;5070354;28;20044;-63
2022/07/09 12:29:11;;;;;;;1.58;1.27;;;;;;;;;;5069481;28;20485;-60
2022/07/09 12:31:37;;;;;;;3.40;1.08;;;;;;;;;;5069065;28;20363;-63
2022/07/09 12:34:04;;;;;;;4.28;1.05;;;;;;;;;;5070568;28;20040;-63
2022/07/09 12:36:31;;;;;;;2.97;1.15;;;;;;;;;;5069037;28;20044;-63
2022/07/09 12:38:57;;;;;;;1.88;1.05;;;;;;;;;;5069168;28;20036;-64
2022/07/09 12:41:23;;;;;;;4.20;1.55;;;;;;;;;;5070179;28;20045;-64
2022/07/09 12:43:49;;;;;;;2.45;1.20;;;;;;;;;;5070642;28;20052;-64
2022/07/09 12:46:15;;;;;;;1.05;0.93;;;;;;;;;;5069862;28;20048;-64
2022/07/09 12:48:41;;;;;;;3.03;1.08;;;;;;;;;;5069783;28;20102;-64
2022/07/09 12:51:07;;;;;;;0.68;0.68;;;;;;;;;;5069467;28;20091;-64
2022/07/09 12:53:33;;;;;;;2.05;1.10;;;;;;;;;;5069147;28;20121;-64
2022/07/09 12:55:59;;;;;;;1.42;1.02;;;;;;;;;;5070458;28;20036;-63
2022/07/09 12:58:25;;;;;;;3.33;1.20;;;;;;;;;;5069729;28;20131;-64
2022/07/09 13:00:51;;;;;;;2.10;0.85;;;;;;;;;;5069659;28;20040;-63
2022/07/09 13:03:17;;;;;;;1.45;1.15;;;;;;;;;;5072220;28;20389;-64
2022/07/09 13:05:43;;;;;;;1.15;1.00;;;;;;;;;;5072988;28;20044;-63
2022/07/09 13:08:09;;;;;;;1.65;1.02;;;;;;;;;;5073059;28;20619;-63
2022/07/09 13:10:36;;;;;;;1.35;1.10;;;;;;;;;;5069620;28;20044;-64
2022/07/09 13:13:02;;;;;;;2.75;1.10;;;;;;;;;;5074065;28;20049;-64
2022/07/09 13:15:28;;;;;;;3.78;1.02;;;;;;;;;;5073316;28;20493;-64
2022/07/09 13:17:54;;;;;;;2.03;1.10;;;;;;;;;;5073596;28;20487;-64
2022/07/09 13:20:20;;;;;;;1.27;0.75;;;;;;;;;;5071516;28;20139;-60
2022/07/09 13:22:46;;;;;;;6.53;1.23;;;;;;;;;;5072580;28;20541;-61
2022/07/09 13:25:12;;;;;;;1.02;0.55;;;;;;;;;;5073437;28;20403;-60
2022/07/09 13:27:39;;;;;;;2.65;0.70;;;;;;;;;;5073193;28;20040;-63
2022/07/09 13:30:06;;;;;;;2.10;0.73;;;;;;;;;;5071525;28;20037;-60
2022/07/09 13:32:32;;;;;;;2.33;0.95;;;;;;;;;;5070594;28;20122;-64
2022/07/09 13:34:58;;;;;;;2.75;0.70;;;;;;;;;;5071364;28;20122;-63
2022/07/09 13:37:24;;;;;;;1.88;0.90;;;;;;;;;;5070435;28;20579;-64
2022/07/09 13:39:51;;;;;;;5.07;0.40;;;;;;;;;;5070815;28;20128;-63
2022/07/09 13:42:17;;;;;;;4.28;0.82;;;;;;;;;;5074489;28;20543;-64
2022/07/09 13:44:43;;;;;;;0.60;0.60;;;;;;;;;;5071466;28;20051;-65
2022/07/09 13:47:09;;;;;;;1.65;0.70;;;;;;;;;;5071304;28;20076;-63
2022/07/09 13:49:35;;;;;;;2.53;0.77;;;;;;;;;;5070837;28;20039;-64
2022/07/09 13:52:01;;;;;;;5.30;0.80;;;;;;;;;;5070573;28;20040;-64
2022/07/09 13:54:27;;;;;;;3.28;1.08;;;;;;;;;;5070152;28;20040;-63
2022/07/09 13:56:55;;;;;;;2.70;0.98;;;;;;;;;;5070795;28;20037;-64
2022/07/09 13:59:21;;;;;;;1.98;0.88;;;;;;;;;;5067877;28;20055;-64
2022/07/09 14:01:47;;;;;;;4.50;0.70;;;;;;;;;;5071270;28;20075;-64
2022/07/09 14:04:13;;;;;;;2.17;0.90;;;;;;;;;;5070909;28;20048;-63
2022/07/09 14:06:39;;;;;;;0.80;0.50;;;;;;;;;;5068738;28;20501;-64
2022/07/09 14:09:05;;;;;;;1.08;0.80;;;;;;;;;;5069390;28;20048;-64
2022/07/09 14:11:32;;;;;;;1.30;0.60;;;;;;;;;;5068284;28;20044;-64
2022/07/09 14:13:58;;;;;;;2.03;1.02;;;;;;;;;;5070173;28;20036;-61
2022/07/09 14:16:25;;;;;;;1.00;0.70;;;;;;;;;;5066908;28;20049;-62
2022/07/09 14:18:51;;;;;;;3.38;0.90;;;;;;;;;;5060046;28;20750;-62
2022/07/09 14:21:17;;;;;;;2.58;0.80;;;;;;;;;;5060044;28;20045;-63
2022/07/09 14:23:47;;;;;;;1.38;0.75;;;;;;;;;;5049148;28;20045;-63
2022/07/09 14:26:15;;;;;;;1.15;0.75;;;;;;;;;;5050839;28;20056;-64
2022/07/09 14:28:41;;;;;;;0.70;0.63;;;;;;;;;;5064231;28;20051;-62
2022/07/09 14:31:07;;;;;;;0.73;0.73;;;;;;;;;;5059613;28;20048;-63
2022/07/09 14:33:33;;;;;;;2.15;0.70;;;;;;;;;;5058192;28;20072;-63
2022/07/09 14:35:59;;;;;;;1.38;0.77;;;;;;;;;;5065095;28;20040;-63
2022/07/09 14:38:25;;;;;;;1.02;0.85;;;;;;;;;;5067885;28;20470;-63
2022/07/09 14:40:51;;;;;;;1.20;0.93;;;;;;;;;;5052346;28;20036;-62
2022/07/09 14:43:17;;;;;;;2.05;0.90;;;;;;;;;;5042402;28;20045;-63